createdAt,value
2019-05-29T00:00:38.954Z,6.90
2019-05-29T00:03:10.495Z,4.87
2019-05-29T00:05:41.685Z,4.20
2019-05-29T00:08:12.344Z,4.40
2019-05-29T00:10:43.505Z,4.80
2019-05-29T00:13:14.480Z,6.00
2019-05-29T00:15:44.862Z,4.60
2019-05-29T00:18:15.020Z,4.40
2019-05-29T00:20:45.216Z,3.53
2019-05-29T00:23:15.364Z,4.37
2019-05-29T00:25:45.590Z,4.30
2019-05-29T00:28:16.783Z,3.50
2019-05-29T00:30:47.331Z,4.33
2019-05-29T00:33:18.333Z,8.53
2019-05-29T00:35:48.867Z,7.83
2019-05-29T00:38:19.031Z,7.70
2019-05-29T00:40:49.402Z,6.67
2019-05-29T00:43:19.602Z,8.00
2019-05-29T00:45:49.945Z,4.60
2019-05-29T00:48:20.213Z,4.10
2019-05-29T00:50:50.970Z,5.40
2019-05-29T00:53:21.793Z,4.93
2019-05-29T00:55:52.032Z,4.90
2019-05-29T00:58:22.922Z,3.97
2019-05-29T01:00:53.320Z,5.30
2019-05-29T01:03:23.828Z,4.13
2019-05-29T01:05:54.314Z,3.87
2019-05-29T01:08:24.569Z,3.87
2019-05-29T01:10:54.949Z,4.30
2019-05-29T01:13:25.592Z,3.90
2019-05-29T01:15:56.042Z,3.50
2019-05-29T01:18:26.323Z,4.20
2019-05-29T01:20:57.050Z,3.73
2019-05-29T01:23:27.256Z,4.33
2019-05-29T01:25:57.660Z,5.10
2019-05-29T01:28:28.158Z,5.47
2019-05-29T01:30:58.562Z,5.40
2019-05-29T01:33:28.720Z,6.33
2019-05-29T01:35:59.009Z,5.17
2019-05-29T01:38:29.693Z,5.87
2019-05-29T01:41:00.040Z,6.80
2019-05-29T01:43:30.224Z,5.60
2019-05-29T01:46:00.485Z,5.87
2019-05-29T01:48:30.632Z,6.33
2019-05-29T01:51:01.138Z,6.80
2019-05-29T01:53:31.600Z,6.77
2019-05-29T01:56:02.043Z,6.73
2019-05-29T01:58:32.232Z,7.90
2019-05-29T02:01:03.746Z,8.10
2019-05-29T02:03:34.259Z,7.53
2019-05-29T02:06:04.552Z,7.20
2019-05-29T02:08:35.247Z,7.90
2019-05-29T02:11:05.650Z,9.10
2019-05-29T02:13:36.373Z,10.10
2019-05-29T02:16:06.989Z,6.97
2019-05-29T02:18:38.214Z,9.80
2019-05-29T02:21:08.427Z,8.43
2019-05-29T02:23:38.865Z,7.87
2019-05-29T02:26:09.375Z,7.63
2019-05-29T02:28:40.136Z,7.77
2019-05-29T02:31:10.828Z,7.63
2019-05-29T02:33:41.135Z,7.60
2019-05-29T02:36:11.633Z,7.07
2019-05-29T02:38:42.028Z,7.57
2019-05-29T02:41:12.217Z,7.13
2019-05-29T02:43:42.360Z,7.70
2019-05-29T02:46:12.938Z,8.40
2019-05-29T02:48:43.267Z,8.47
2019-05-29T02:51:13.914Z,7.63
2019-05-29T02:53:44.817Z,8.63
2019-05-29T02:56:15.388Z,8.30
2019-05-29T02:58:45.723Z,8.07
2019-05-29T03:01:16.385Z,7.90
2019-05-29T03:03:47.121Z,6.77
2019-05-29T03:06:17.662Z,8.50
2019-05-29T03:08:48.405Z,7.60
2019-05-29T03:11:18.649Z,7.27
2019-05-29T03:13:49.192Z,7.20
2019-05-29T03:16:20.190Z,7.23
2019-05-29T03:18:50.560Z,6.50
2019-05-29T03:21:20.773Z,7.00
2019-05-29T03:23:51.181Z,7.90
2019-05-29T03:26:24.568Z,8.17
2019-05-29T03:28:53.560Z,7.80
2019-05-29T03:31:23.693Z,7.20
2019-05-29T03:33:53.974Z,7.00
2019-05-29T03:36:27.419Z,6.67
2019-05-29T03:38:56.605Z,6.93
2019-05-29T03:41:28.212Z,7.27
2019-05-29T03:43:58.766Z,7.33
2019-05-29T03:46:37.749Z,6.90
2019-05-29T03:49:01.467Z,5.63
2019-05-29T03:51:34.404Z,8.93
2019-05-29T03:54:03.786Z,9.63
2019-05-29T03:56:34.804Z,9.57
2019-05-29T03:59:05.304Z,5.93
2019-05-29T04:01:37.268Z,5.40
2019-05-29T04:04:07.453Z,3.60
2019-05-29T04:06:37.807Z,5.00
2019-05-29T04:09:08.521Z,7.27
2019-05-29T04:11:39.480Z,7.13
2019-05-29T04:14:10.327Z,5.83
2019-05-29T04:16:58.213Z,5.13
2019-05-29T04:19:14.545Z,4.93
2019-05-29T04:21:47.431Z,4.93
2019-05-29T04:24:18.969Z,4.77
2019-05-29T04:26:51.759Z,9.53
2019-05-29T04:29:22.707Z,9.00
2019-05-29T04:31:53.312Z,9.30
2019-05-29T04:34:23.634Z,9.50
2019-05-29T04:36:53.773Z,8.33
2019-05-29T04:39:24.476Z,5.27
2019-05-29T04:41:54.594Z,9.47
2019-05-29T04:44:24.742Z,5.60
2019-05-29T04:47:10.493Z,5.37
2019-05-29T04:49:28.998Z,5.53
2019-05-29T04:52:07.545Z,4.70
2019-05-29T04:54:40.019Z,5.10
2019-05-29T04:57:10.058Z,4.50
2019-05-29T04:59:41.499Z,4.13
2019-05-29T05:02:11.794Z,4.50
2019-05-29T05:04:41.929Z,4.30
2019-05-29T05:07:12.062Z,4.13
2019-05-29T05:09:42.391Z,4.37
2019-05-29T05:12:13.007Z,5.13
2019-05-29T05:14:43.060Z,5.10
2019-05-29T05:17:25.664Z,5.40
2019-05-29T05:19:45.740Z,4.70
2019-05-29T05:22:16.186Z,3.67
2019-05-29T05:24:46.432Z,4.70
2019-05-29T05:27:18.344Z,5.17
2019-05-29T05:29:48.649Z,4.13
2019-05-29T05:32:18.843Z,4.10
2019-05-29T05:34:48.883Z,5.23
2019-05-29T05:37:19.558Z,3.90
2019-05-29T05:39:49.856Z,3.57
2019-05-29T05:42:20.125Z,3.70
2019-05-29T05:44:50.336Z,5.03
2019-05-29T05:47:20.573Z,3.90
2019-05-29T05:49:51.095Z,4.00
2019-05-29T05:52:21.256Z,3.80
2019-05-29T05:54:51.380Z,4.10
2019-05-29T05:57:21.685Z,3.93
2019-05-29T05:59:52.305Z,3.70
2019-05-29T06:02:22.694Z,4.10
2019-05-29T06:04:53.053Z,3.67
2019-05-29T06:07:23.674Z,3.40
2019-05-29T06:09:53.805Z,4.70
2019-05-29T06:12:23.938Z,4.13
2019-05-29T06:14:54.989Z,4.47
2019-05-29T06:17:25.176Z,3.93
2019-05-29T06:19:55.417Z,3.30
2019-05-29T06:22:25.709Z,3.17
2019-05-29T06:24:57.654Z,3.30
2019-05-29T06:27:27.765Z,3.67
2019-05-29T06:29:58.256Z,4.00
2019-05-29T06:32:28.412Z,3.67
2019-05-29T06:34:58.622Z,2.17
2019-05-29T06:37:29.300Z,2.20
2019-05-29T06:39:59.695Z,2.83
2019-05-29T06:42:30.772Z,2.27
2019-05-29T06:45:01.509Z,2.53
2019-05-29T06:47:34.132Z,2.90
2019-05-29T06:50:05.190Z,2.40
2019-05-29T06:52:35.782Z,2.67
2019-05-29T06:55:06.181Z,1.90
2019-05-29T06:57:37.982Z,2.30
2019-05-29T07:00:08.632Z,2.97
2019-05-29T07:02:40.716Z,2.67
2019-05-29T07:05:11.273Z,2.20
2019-05-29T07:07:42.568Z,2.23
2019-05-29T07:10:13.277Z,3.50
2019-05-29T07:12:44.488Z,3.60
2019-05-29T07:15:15.301Z,2.90
2019-05-29T07:17:46.597Z,3.50
2019-05-29T07:20:17.782Z,4.00
2019-05-29T07:22:48.601Z,3.90
2019-05-29T07:25:18.765Z,3.43
2019-05-29T07:27:49.599Z,3.60
2019-05-29T07:30:20.850Z,2.87
2019-05-29T07:32:57.971Z,4.40
2019-05-29T07:35:24.313Z,3.27
2019-05-29T07:37:54.631Z,4.17
2019-05-29T07:40:26.132Z,3.07
2019-05-29T07:42:57.128Z,3.47
2019-05-29T07:45:27.741Z,4.03
2019-05-29T07:47:58.175Z,3.87
2019-05-29T07:50:28.589Z,3.20
2019-05-29T07:52:59.330Z,3.10
2019-05-29T07:55:29.631Z,1.87
2019-05-29T07:58:01.710Z,2.20
2019-05-29T08:00:35.800Z,1.80
2019-05-29T08:03:05.258Z,2.13
2019-05-29T08:05:36.032Z,1.80
2019-05-29T08:08:06.826Z,1.83
2019-05-29T08:10:37.120Z,2.07
2019-05-29T08:13:07.402Z,2.40
2019-05-29T08:15:55.268Z,2.30
2019-05-29T08:18:12.385Z,7.67
2019-05-29T08:20:43.901Z,1.80
2019-05-29T08:23:14.579Z,1.90
2019-05-29T08:25:45.340Z,2.27
2019-05-29T08:28:15.936Z,2.07
2019-05-29T08:30:54.365Z,8.90
2019-05-29T08:33:20.788Z,2.33
2019-05-29T08:35:59.414Z,3.13
2019-05-29T08:38:23.632Z,2.37
2019-05-29T08:40:53.835Z,2.10
2019-05-29T08:43:24.511Z,4.10
2019-05-29T08:45:55.391Z,2.00
2019-05-29T08:48:25.673Z,2.30
2019-05-29T08:50:56.006Z,2.43
2019-05-29T08:53:26.377Z,1.97
2019-05-29T08:55:56.621Z,1.97
2019-05-29T08:58:26.906Z,2.10
2019-05-29T09:00:57.244Z,2.13
2019-05-29T09:03:27.490Z,2.10
2019-05-29T09:06:08.650Z,2.23
2019-05-29T09:08:30.132Z,2.43
2019-05-29T09:11:00.489Z,2.40
2019-05-29T09:13:30.956Z,1.87
2019-05-29T09:16:01.242Z,1.80
2019-05-29T09:18:31.505Z,2.50
2019-05-29T09:21:03.981Z,2.70
2019-05-29T09:23:34.457Z,2.03
2019-05-29T09:26:14.174Z,2.57
2019-05-29T09:28:36.770Z,2.20
2019-05-29T09:31:07.178Z,2.50
2019-05-29T09:33:38.460Z,2.30
2019-05-29T09:36:08.601Z,2.30
2019-05-29T09:38:38.800Z,2.10
2019-05-29T09:41:09.086Z,2.40
2019-05-29T09:43:57.371Z,2.30
2019-05-29T09:46:11.975Z,2.93
2019-05-29T09:48:49.880Z,2.83
2019-05-29T09:51:21.313Z,2.70
2019-05-29T09:53:46.344Z,2.23
2019-05-29T09:56:16.981Z,3.33
2019-05-29T09:58:47.341Z,3.00
2019-05-29T10:01:23.956Z,2.77
2019-05-29T10:03:54.814Z,2.40
2019-05-29T10:06:26.008Z,1.80
2019-05-29T10:08:57.625Z,2.20
2019-05-29T10:11:28.341Z,2.03
2019-05-29T10:14:00.162Z,1.40
2019-05-29T10:16:30.936Z,2.37
2019-05-29T10:19:01.561Z,1.87
2019-05-29T10:21:40.597Z,1.90
2019-05-29T10:24:06.193Z,1.57
2019-05-29T10:26:36.417Z,2.10
2019-05-29T10:29:09.232Z,2.23
2019-05-29T10:31:38.687Z,1.87
2019-05-29T10:34:08.999Z,2.20
2019-05-29T10:36:39.129Z,2.30
2019-05-29T10:39:12.791Z,2.20
2019-05-29T10:41:42.688Z,2.83
2019-05-29T10:44:13.313Z,2.20
2019-05-29T10:46:54.670Z,2.17
2019-05-29T10:49:24.912Z,2.50
2019-05-29T10:52:10.986Z,2.70
2019-05-29T10:54:26.987Z,1.90
2019-05-29T10:56:57.199Z,2.53
2019-05-29T10:59:27.336Z,2.30
2019-05-29T11:01:57.684Z,2.50
2019-05-29T11:04:27.943Z,2.60
2019-05-29T11:06:58.309Z,2.70
2019-05-29T11:09:43.391Z,3.33
2019-05-29T11:12:00.386Z,2.80
2019-05-29T11:14:30.596Z,2.93
2019-05-29T11:17:01.148Z,2.00
2019-05-29T11:19:31.679Z,2.03
2019-05-29T11:22:24.777Z,3.00
2019-05-29T11:24:34.680Z,2.63
2019-05-29T11:27:05.299Z,2.83
2019-05-29T11:29:35.529Z,2.17
2019-05-29T11:46:20.567Z,2.20
2019-05-29T11:48:51.130Z,2.57
2019-05-29T11:51:22.174Z,2.60
2019-05-29T11:53:53.473Z,2.80
2019-05-29T11:56:23.938Z,3.70
2019-05-29T11:58:54.791Z,2.40
2019-05-29T12:01:24.966Z,2.73
2019-05-29T12:04:21.154Z,2.47
2019-05-29T12:06:27.132Z,2.73
2019-05-29T12:08:57.983Z,2.77
2019-05-29T12:11:28.375Z,2.73
2019-05-29T12:14:00.569Z,2.90
2019-05-29T12:16:30.944Z,2.83
2019-05-29T12:19:01.936Z,2.10
2019-05-29T12:21:32.107Z,2.30
2019-05-29T12:24:02.387Z,2.23
2019-05-29T12:26:32.542Z,2.60
2019-05-29T12:29:11.007Z,2.83
2019-05-29T12:31:34.456Z,2.10
2019-05-29T12:34:16.459Z,2.77
2019-05-29T12:36:36.385Z,2.60
2019-05-29T12:39:08.840Z,2.20
2019-05-29T12:41:39.028Z,2.43
2019-05-29T12:44:09.153Z,1.87
2019-05-29T12:46:39.215Z,2.50
2019-05-29T12:49:09.391Z,2.27
2019-05-29T12:51:39.635Z,2.63
2019-05-29T12:54:09.817Z,2.50
2019-05-29T12:56:41.640Z,2.30
2019-05-29T12:59:11.918Z,2.70
2019-05-29T13:01:42.029Z,2.83
2019-05-29T13:04:12.067Z,2.53
2019-05-29T13:06:42.390Z,3.60
2019-05-29T13:09:13.181Z,2.70
2019-05-29T13:11:43.495Z,2.63
2019-05-29T13:14:14.208Z,2.50
2019-05-29T13:16:45.353Z,3.17
2019-05-29T13:19:15.405Z,1.73
2019-05-29T13:21:45.635Z,2.77
2019-05-29T13:24:15.739Z,2.50
2019-05-29T13:26:45.988Z,2.03
2019-05-29T13:29:16.085Z,2.90
2019-05-29T13:31:46.145Z,2.90
2019-05-29T13:34:16.968Z,3.00
2019-05-29T13:36:47.298Z,2.83
2019-05-29T13:39:17.706Z,3.20
2019-05-29T13:41:47.766Z,2.90
2019-05-29T13:44:17.863Z,3.27
2019-05-29T13:46:47.927Z,2.90
2019-05-29T13:49:17.968Z,2.90
2019-05-29T13:51:48.053Z,2.87
2019-05-29T13:54:18.535Z,3.07
2019-05-29T13:56:48.872Z,3.30
2019-05-29T13:59:19.218Z,3.13
2019-05-29T14:01:49.520Z,2.77
2019-05-29T14:04:20.256Z,2.70
2019-05-29T14:06:52.897Z,2.50
2019-05-29T14:09:22.492Z,2.73
2019-05-29T14:11:52.555Z,2.00
2019-05-29T14:14:22.771Z,2.80
2019-05-29T14:16:52.772Z,2.57
2019-05-29T14:19:23.069Z,2.97
2019-05-29T14:21:53.141Z,2.53
2019-05-29T14:24:29.288Z,2.40
2019-05-29T14:26:55.008Z,2.50
2019-05-29T14:29:25.065Z,2.53
2019-05-29T14:31:55.092Z,2.80
2019-05-29T14:34:25.203Z,3.10
2019-05-29T14:36:55.195Z,2.30
2019-05-29T14:39:25.346Z,2.93
2019-05-29T14:41:55.588Z,2.90
2019-05-29T14:44:25.736Z,3.33
2019-05-29T14:46:56.085Z,2.63
2019-05-29T14:49:27.008Z,2.67
2019-05-29T14:51:57.585Z,2.40
2019-05-29T14:54:41.331Z,3.07
2019-05-29T14:56:59.635Z,3.27
2019-05-29T14:59:29.778Z,3.00
2019-05-29T15:01:59.815Z,2.93
2019-05-29T15:04:29.799Z,2.57
2019-05-29T15:06:59.885Z,2.77
2019-05-29T15:09:29.957Z,2.30
2019-05-29T15:12:00.001Z,3.00
2019-05-29T15:14:30.309Z,3.13
2019-05-29T15:17:00.565Z,2.67
2019-05-29T15:19:30.794Z,2.90
2019-05-29T15:22:01.808Z,2.87
2019-05-29T15:24:32.120Z,2.90
2019-05-29T15:27:02.677Z,2.73
2019-05-29T15:29:32.852Z,2.70
2019-05-29T15:32:02.878Z,3.57
2019-05-29T15:34:32.944Z,4.53
2019-05-29T15:37:03.475Z,3.40
2019-05-29T15:39:33.609Z,3.30
2019-05-29T15:42:04.172Z,2.60
2019-05-29T15:44:34.230Z,2.90
2019-05-29T15:47:04.587Z,2.90
2019-05-29T15:49:34.875Z,4.30
2019-05-29T15:52:05.168Z,3.30
2019-05-29T15:54:35.577Z,2.90
2019-05-29T15:57:06.918Z,3.40
2019-05-29T15:59:36.959Z,4.20
2019-05-29T16:02:07.485Z,3.30
2019-05-29T16:04:37.994Z,3.27
2019-05-29T16:07:08.237Z,3.10
2019-05-29T16:09:38.444Z,4.50
2019-05-29T16:12:08.628Z,3.30
2019-05-29T16:14:38.664Z,3.10
2019-05-29T16:17:09.029Z,2.60
2019-05-29T16:19:39.092Z,2.60
2019-05-29T16:22:10.298Z,3.00
2019-05-29T16:24:40.522Z,2.43
2019-05-29T16:27:10.684Z,2.57
2019-05-29T16:29:41.068Z,3.60
2019-05-29T16:32:11.628Z,3.30
2019-05-29T16:34:41.937Z,3.10
2019-05-29T16:37:13.099Z,3.13
2019-05-29T16:39:43.867Z,3.40
2019-05-29T16:42:14.128Z,3.17
2019-05-29T16:44:44.229Z,3.73
2019-05-29T16:47:14.769Z,3.10
2019-05-29T16:49:45.141Z,2.40
2019-05-29T16:52:16.717Z,3.10
2019-05-29T16:54:47.153Z,4.00
2019-05-29T16:57:17.196Z,3.30
2019-05-29T16:59:47.288Z,2.60
2019-05-29T17:02:17.938Z,2.80
2019-05-29T17:04:47.997Z,2.90
2019-05-29T17:07:18.136Z,2.47
2019-05-29T17:09:48.293Z,3.97
2019-05-29T17:12:18.800Z,2.80
2019-05-29T17:14:48.996Z,3.00
2019-05-29T17:17:19.152Z,3.20
2019-05-29T17:19:50.360Z,3.05
2019-05-29T17:22:20.964Z,2.33
2019-05-29T17:24:51.402Z,3.00
2019-05-29T17:27:22.872Z,3.22
2019-05-29T17:29:53.329Z,3.33
2019-05-29T17:32:25.187Z,3.23
2019-05-29T17:34:55.684Z,4.00
2019-05-29T17:37:34.342Z,3.60
2019-05-29T17:40:04.848Z,3.37
2019-05-29T17:42:35.818Z,3.50
2019-05-29T17:45:06.761Z,4.17
2019-05-29T17:47:36.991Z,3.10
2019-05-29T17:50:08.394Z,3.07
2019-05-29T17:52:38.754Z,4.37
2019-05-29T17:55:09.408Z,3.93
2019-05-29T17:57:39.691Z,3.23
2019-05-29T18:00:11.743Z,3.27
2019-05-29T18:02:52.151Z,2.90
2019-05-29T18:05:18.446Z,3.40
2019-05-29T18:07:49.100Z,4.37
2019-05-29T18:10:22.130Z,3.20
2019-05-29T18:12:52.065Z,3.57
2019-05-29T18:15:23.710Z,3.50
2019-05-29T18:17:53.989Z,3.10
2019-05-29T18:20:25.507Z,3.40
2019-05-29T18:22:56.636Z,3.17
2019-05-29T18:25:28.174Z,2.83
2019-05-29T18:27:58.396Z,3.60
2019-05-29T18:30:30.496Z,2.97
2019-05-29T18:33:02.928Z,2.70
2019-05-29T18:35:35.765Z,3.10
2019-05-29T18:38:11.216Z,2.30
2019-05-29T18:40:41.969Z,3.90
2019-05-29T18:43:12.207Z,3.20
2019-05-29T18:45:42.384Z,2.60
2019-05-29T18:48:12.634Z,3.07
2019-05-29T18:50:44.305Z,3.10
2019-05-29T18:53:18.077Z,2.87
2019-05-29T18:55:49.355Z,3.50
2019-05-29T18:58:19.541Z,2.60
2019-05-29T19:00:49.709Z,3.07
2019-05-29T19:03:21.284Z,3.00
2019-05-29T19:05:51.740Z,2.67
2019-05-29T19:08:21.951Z,3.40
2019-05-29T19:10:51.989Z,3.03
2019-05-29T19:13:23.789Z,3.27
2019-05-29T19:15:56.503Z,3.13
2019-05-29T19:18:28.287Z,2.77
2019-05-29T19:20:59.142Z,3.07
2019-05-29T19:23:30.758Z,3.10
2019-05-29T19:26:03.338Z,3.40
2019-05-29T19:28:36.693Z,2.90
2019-05-29T19:31:07.263Z,4.33
2019-05-29T19:33:41.345Z,3.30
2019-05-29T19:36:15.322Z,3.33
2019-05-29T19:38:47.963Z,3.20
2019-05-29T19:41:21.064Z,3.83
2019-05-29T19:43:53.346Z,3.67
2019-05-29T19:46:26.467Z,3.30
2019-05-29T19:48:58.582Z,3.13
2019-05-29T19:51:29.253Z,2.93
2019-05-29T19:53:59.332Z,2.90
2019-05-29T19:56:30.342Z,2.83
2019-05-29T19:59:00.596Z,3.20
2019-05-29T20:01:36.163Z,3.43
2019-05-29T20:04:03.292Z,2.90
2019-05-29T20:06:33.543Z,3.33
2019-05-29T20:09:05.135Z,3.37
2019-05-29T20:11:35.656Z,3.27
2019-05-29T20:14:07.608Z,4.07
2019-05-29T20:16:39.177Z,3.20
2019-05-29T20:19:09.684Z,5.00
2019-05-29T20:21:39.920Z,3.70
2019-05-29T20:24:11.876Z,3.70
2019-05-29T20:26:43.032Z,4.07
2019-05-29T20:29:13.099Z,4.27
2019-05-29T20:31:43.593Z,3.30
2019-05-29T20:34:13.799Z,3.70
2019-05-29T20:36:43.933Z,4.00
2019-05-29T20:39:13.980Z,5.13
2019-05-29T20:41:52.451Z,4.40
2019-05-29T20:44:22.664Z,3.73
2019-05-29T20:46:52.957Z,4.87
2019-05-29T20:49:22.961Z,3.70
2019-05-29T20:51:53.151Z,4.30
2019-05-29T20:54:23.438Z,4.77
2019-05-29T20:56:53.578Z,4.50
2019-05-29T20:59:23.740Z,4.20
2019-05-29T21:01:53.959Z,5.00
2019-05-29T21:04:24.095Z,4.60
2019-05-29T21:06:54.532Z,4.43
2019-05-29T21:09:24.962Z,4.00
2019-05-29T21:11:55.232Z,4.30
2019-05-29T21:14:26.036Z,3.93
2019-05-29T21:16:56.110Z,4.30
2019-05-29T21:19:45.178Z,4.63
2019-05-29T21:22:15.245Z,4.77
2019-05-29T21:24:57.083Z,4.43
2019-05-29T21:27:18.087Z,4.70
2019-05-29T21:29:48.375Z,4.83
2019-05-29T21:32:18.424Z,4.80
2019-05-29T21:34:48.425Z,5.50
2019-05-29T21:37:18.433Z,4.67
2019-05-29T21:39:48.654Z,4.30
2019-05-29T21:42:18.790Z,4.57
2019-05-29T21:44:48.908Z,5.20
2019-05-29T21:47:18.939Z,4.60
2019-05-29T21:49:49.056Z,4.67
2019-05-29T21:52:19.302Z,4.40
2019-05-29T21:54:49.815Z,5.33
2019-05-29T21:57:20.096Z,3.90
2019-05-29T21:59:51.344Z,4.40
2019-05-29T22:02:21.856Z,4.70
2019-05-29T22:04:52.023Z,4.50
2019-05-29T22:07:22.259Z,4.60
2019-05-29T22:09:52.525Z,4.60
2019-05-29T22:12:22.633Z,4.57
2019-05-29T22:14:53.326Z,5.10
2019-05-29T22:17:23.865Z,3.73
2019-05-29T22:19:54.946Z,4.77
2019-05-29T22:22:25.537Z,3.50
2019-05-29T22:24:57.132Z,4.10
2019-05-29T22:27:27.845Z,4.43
2019-05-29T22:29:57.965Z,3.70
2019-05-29T22:32:28.038Z,4.27
2019-05-29T22:34:59.480Z,4.07
2019-05-29T22:37:29.713Z,3.77
2019-05-29T22:39:59.928Z,3.60
2019-05-29T22:42:29.988Z,4.00
2019-05-29T22:45:00.052Z,4.13
2019-05-29T22:47:30.355Z,4.27
2019-05-29T22:50:01.847Z,4.20
2019-05-29T22:52:32.327Z,3.33
2019-05-29T22:55:02.528Z,3.97
2019-05-29T22:57:32.636Z,3.53
2019-05-29T23:00:02.769Z,3.80
2019-05-29T23:02:32.876Z,3.50
2019-05-29T23:05:03.710Z,3.50
2019-05-29T23:07:33.963Z,3.03
2019-05-29T23:10:04.250Z,3.00
2019-05-29T23:12:34.402Z,2.47
2019-05-29T23:15:04.677Z,2.80
2019-05-29T23:17:34.686Z,3.03
2019-05-29T23:20:04.980Z,3.77
2019-05-29T23:22:35.255Z,3.00
2019-05-29T23:25:06.203Z,3.50
2019-05-29T23:27:36.516Z,2.53
2019-05-29T23:30:06.927Z,2.30
2019-05-29T23:32:37.223Z,2.57
2019-05-29T23:35:07.582Z,2.50
2019-05-29T23:37:37.892Z,2.60
2019-05-29T23:40:08.782Z,2.30
2019-05-29T23:42:38.845Z,2.23
2019-05-29T23:45:09.391Z,2.17
2019-05-29T23:47:39.446Z,2.17
2019-05-29T23:50:11.130Z,2.47
2019-05-29T23:52:41.209Z,2.27
2019-05-29T23:55:11.647Z,2.30
2019-05-29T23:57:41.639Z,2.57
